Time;durP1;ratioP1;P1;durP2;ratioP2;P2;SDS_P1;SDS_P2;PMS_P1;PMS_P2;Temp;Humidity;BMP_temperature;BMP_pressure;BME280_temperature;BME280_humidity;BME280_pressure;Samples;Min_cycle;Max_cycle;Signal;HPM_P1;HPM_P2
2023/09/28 00:02:55;;;;;;;2.28;1.15;;;;;;;20.36;63.75;100718.13;10296574;28;96656;-79
2023/09/28 00:08:00;;;;;;;2.53;1.27;;;;;;;20.03;64.87;100711.69;10297083;28;96752;-78
2023/09/28 00:13:04;;;;;;;3.10;1.50;;;;;;;19.94;65.01;100715.81;10296396;28;96589;-79
2023/09/28 00:18:10;;;;;;;1.83;1.17;;;;;;;19.87;65.05;100708.38;10296356;28;97265;-79
2023/09/28 00:23:14;;;;;;;3.83;1.52;;;;;;;19.51;66.54;100709.09;10296969;28;96577;-78
2023/09/28 00:28:17;;;;;;;2.67;1.30;;;;;;;19.84;65.50;100705.94;10296242;28;99536;-79
2023/09/28 00:33:22;;;;;;;3.15;1.35;;;;;;;20.02;64.95;100705.47;10294927;28;97197;-79
2023/09/28 00:38:26;;;;;;;2.03;1.23;;;;;;;19.75;65.59;100706.56;10294516;28;96802;-79
2023/09/28 00:43:29;;;;;;;1.88;1.17;;;;;;;19.36;66.85;100703.94;10296205;28;96935;-78
2023/09/28 00:48:43;;;;;;;2.70;1.57;;;;;;;19.45;66.57;100700.69;10295422;28;96612;-79
2023/09/28 00:53:46;;;;;;;2.47;1.23;;;;;;;19.54;66.17;100700.03;10295267;28;97366;-78
2023/09/28 00:58:53;;;;;;;2.95;1.15;;;;;;;19.18;67.33;100703.41;10294817;28;96770;-79
2023/09/28 01:04:01;;;;;;;2.60;1.17;;;;;;;19.32;67.00;100705.97;10294917;28;98871;-78
2023/09/28 01:09:08;;;;;;;1.83;0.90;;;;;;;19.34;67.28;100704.03;10295085;28;96643;-79
2023/09/28 01:14:12;;;;;;;3.28;1.30;;;;;;;19.56;66.31;100696.31;10295732;28;96611;-79
2023/09/28 01:19:17;;;;;;;2.83;1.45;;;;;;;19.44;66.39;100704.31;10295056;28;96843;-79
2023/09/28 01:24:22;;;;;;;2.38;1.25;;;;;;;19.10;67.52;100703.03;10294629;28;97252;-78
2023/09/28 01:29:26;;;;;;;2.25;1.42;;;;;;;19.00;67.65;100704.63;10293432;28;96846;-79
2023/09/28 01:34:29;;;;;;;1.35;0.90;;;;;;;18.90;67.80;100698.22;10294700;28;96737;-79
2023/09/28 01:39:34;;;;;;;3.22;1.52;;;;;;;18.95;67.75;100706.75;10294266;28;96616;-79
2023/09/28 01:44:38;;;;;;;2.83;1.17;;;;;;;18.72;68.36;100702.06;10297544;28;96867;-79
2023/09/28 01:49:41;;;;;;;3.35;1.67;;;;;;;18.50;69.16;100701.78;10301606;28;97162;-79
2023/09/28 01:54:46;;;;;;;1.80;1.20;;;;;;;18.61;69.28;100696.63;10301347;28;96930;-78
2023/09/28 01:59:50;;;;;;;2.58;1.15;;;;;;;18.58;68.73;100695.00;10300176;28;97014;-79
2023/09/28 02:04:53;;;;;;;2.78;1.40;;;;;;;18.73;68.68;100688.63;10301329;28;96622;-79
2023/09/28 02:09:59;;;;;;;2.60;1.45;;;;;;;18.73;68.52;100685.97;10300574;28;96849;-79
2023/09/28 02:15:05;;;;;;;2.58;1.08;;;;;;;18.79;68.48;100684.72;10300211;28;96672;-79
2023/09/28 02:20:10;;;;;;;1.90;1.08;;;;;;;18.97;68.02;100683.50;10298914;28;96712;-79
2023/09/28 02:25:17;;;;;;;2.42;1.10;;;;;;;18.97;68.19;100680.84;10305275;28;97103;-79
2023/09/28 02:30:24;;;;;;;2.10;1.00;;;;;;;19.20;67.53;100686.31;10340959;28;97629;-79
2023/09/28 02:35:28;;;;;;;2.53;1.33;;;;;;;19.33;67.09;100690.81;10340731;28;96743;-79
2023/09/28 02:40:33;;;;;;;1.67;0.77;;;;;;;19.25;67.36;100681.50;10339779;28;97235;-79
2023/09/28 02:45:37;;;;;;;2.88;1.40;;;;;;;19.28;67.46;100677.78;10340463;28;96663;-79
2023/09/28 02:50:40;;;;;;;2.08;1.38;;;;;;;19.13;67.73;100674.34;10340321;28;97341;-78
2023/09/28 02:55:47;;;;;;;2.33;1.35;;;;;;;19.15;67.75;100672.44;10326566;28;96845;-78
2023/09/28 03:00:51;;;;;;;4.05;1.42;;;;;;;19.06;68.39;100667.72;10332145;28;96898;-79
2023/09/28 03:05:55;;;;;;;2.08;1.30;;;;;;;19.01;68.39;100676.97;10340157;28;96911;-78
2023/09/28 03:11:00;;;;;;;;;;;;;;;18.98;69.47;100669.19;10339157;28;96738;-78
2023/09/28 03:16:06;;;;;;;2.40;1.20;;;;;;;18.67;69.12;100675.72;10319895;28;96689;-78
2023/09/28 03:21:10;;;;;;;2.25;1.30;;;;;;;18.53;69.06;100681.13;10297929;28;96679;-79
2023/09/28 03:26:15;;;;;;;3.45;1.25;;;;;;;18.36;69.79;100675.13;10297939;28;96690;-79
2023/09/28 03:31:20;;;;;;;2.20;1.10;;;;;;;18.36;69.77;100681.31;10298260;28;96945;-79
2023/09/28 03:36:23;;;;;;;1.75;1.25;;;;;;;18.32;69.74;100679.81;10297662;28;96785;-79
2023/09/28 03:41:29;;;;;;;2.03;1.10;;;;;;;18.25;69.96;100689.13;10297015;28;97523;-78
2023/09/28 03:46:32;;;;;;;2.20;1.40;;;;;;;18.62;69.03;100692.97;10297639;28;98332;-78
2023/09/28 03:51:35;;;;;;;2.03;1.48;;;;;;;18.39;69.59;100702.44;10297813;28;96722;-78
2023/09/28 03:56:40;;;;;;;2.85;1.10;;;;;;;18.27;69.99;100705.03;10296788;28;96879;-79
2023/09/28 04:01:44;;;;;;;2.38;1.05;;;;;;;18.47;69.56;100699.31;10295304;28;96793;-78
2023/09/28 04:06:49;;;;;;;2.55;1.25;;;;;;;18.59;68.91;100695.84;10297372;28;96892;-78
2023/09/28 04:11:54;;;;;;;1.90;1.05;;;;;;;18.50;69.00;100715.97;10296706;28;96604;-78
2023/09/28 04:16:57;;;;;;;1.75;1.25;;;;;;;18.06;70.25;100710.78;10296143;28;97318;-78
2023/09/28 04:22:01;;;;;;;2.72;1.17;;;;;;;18.40;69.81;100712.16;10296702;28;97408;-78
2023/09/28 04:27:08;;;;;;;1.25;0.98;;;;;;;18.58;68.91;100710.13;10295768;28;96735;-78
2023/09/28 04:32:11;;;;;;;2.10;1.40;;;;;;;18.37;70.14;100708.84;10296038;28;96749;-78
2023/09/28 04:37:16;;;;;;;2.10;1.00;;;;;;;18.19;71.32;100708.19;10296724;28;97145;-78
2023/09/28 04:42:21;;;;;;;3.63;1.42;;;;;;;18.24;70.64;100705.22;10296060;28;97687;-79
2023/09/28 04:47:25;;;;;;;1.60;1.00;;;;;;;18.36;69.86;100704.44;10295472;28;96705;-78
2023/09/28 04:52:28;;;;;;;2.03;1.00;;;;;;;18.31;70.15;100703.88;10294292;28;96772;-78
2023/09/28 04:57:33;;;;;;;1.63;1.10;;;;;;;18.25;70.41;100702.47;10295652;28;97400;-78
2023/09/28 05:02:36;;;;;;;;;;;;;;;18.17;71.92;100697.66;10295475;28;97117;-78
2023/09/28 05:07:43;;;;;;;1.63;0.88;;;;;;;18.10;70.76;100690.13;10294764;28;96741;-78
2023/09/28 05:12:48;;;;;;;2.60;1.20;;;;;;;17.95;71.19;100696.44;10295995;28;97124;-78
2023/09/28 05:17:51;;;;;;;2.10;1.17;;;;;;;18.05;70.66;100692.22;10334749;28;96767;-78
2023/09/28 05:22:55;;;;;;;1.08;0.80;;;;;;;18.06;71.00;100700.13;10317964;28;96693;-78
2023/09/28 05:28:00;;;;;;;2.27;1.20;;;;;;;18.01;71.16;100701.34;10292858;22;97892;-78
2023/09/28 05:33:03;;;;;;;1.73;1.08;;;;;;;17.97;71.32;100702.50;10214930;28;96860;-78
2023/09/28 05:38:07;;;;;;;3.08;1.50;;;;;;;17.95;71.30;100709.75;10250027;28;96837;-78
2023/09/28 05:43:11;;;;;;;3.33;1.20;;;;;;;17.95;71.55;100717.72;10252534;28;96672;-78
2023/09/28 05:48:14;;;;;;;;;;;;;;;17.86;74.42;100718.31;10246031;28;96791;-78
2023/09/28 05:53:19;;;;;;;3.27;1.50;;;;;;;17.88;71.69;100722.56;10253654;28;97435;-78
2023/09/28 05:58:24;;;;;;;1.95;1.10;;;;;;;17.79;72.54;100717.84;10253031;28;97230;-78
2023/09/28 06:03:28;;;;;;;2.65;1.27;;;;;;;17.70;73.00;100723.72;10253197;28;97237;-78
2023/09/28 06:08:31;;;;;;;2.85;1.42;;;;;;;17.63;73.15;100718.84;10252175;28;96659;-78
2023/09/28 06:13:36;;;;;;;5.47;2.00;;;;;;;17.59;73.52;100723.50;10252612;28;96796;-78
2023/09/28 06:18:45;;;;;;;3.28;1.80;;;;;;;17.69;72.57;100726.47;10253734;28;96780;-79
2023/09/28 06:23:48;;;;;;;5.47;2.70;;;;;;;17.62;73.04;100733.13;10251951;28;97524;-78
2023/09/28 06:28:52;;;;;;;6.88;3.53;;;;;;;17.61;73.92;100739.38;10252019;28;96662;-78
2023/09/28 06:33:56;;;;;;;5.55;2.38;;;;;;;17.61;73.58;100744.69;10258387;28;97516;-78
2023/09/28 06:38:59;;;;;;;2.95;1.52;;;;;;;17.59;74.03;100738.63;10247972;28;96600;-78
2023/09/28 06:44:04;;;;;;;3.38;1.80;;;;;;;17.51;74.10;100743.53;10218169;28;96787;-78
2023/09/28 06:49:08;;;;;;;2.08;1.40;;;;;;;17.49;74.36;100750.75;10217833;28;96869;-78
2023/09/28 06:54:12;;;;;;;2.47;1.48;;;;;;;17.45;74.51;100755.38;10218508;28;96684;-78
2023/09/28 06:59:24;;;;;;;3.38;1.80;;;;;;;17.34;75.83;100756.97;10218179;28;96800;-78
2023/09/28 07:04:29;;;;;;;3.53;1.67;;;;;;;17.32;75.36;100757.06;10218251;28;97139;-78
2023/09/28 07:09:33;;;;;;;3.28;1.40;;;;;;;17.26;76.12;100757.41;10218972;28;97181;-78
2023/09/28 07:14:58;;;;;;;4.10;1.85;;;;;;;17.39;75.79;100777.03;10218318;28;97133;-79
2023/09/28 07:20:07;;;;;;;3.33;1.65;;;;;;;17.54;75.89;100769.97;10217208;28;96816;-79
2023/09/28 07:25:13;;;;;;;3.42;1.70;;;;;;;17.76;74.92;100781.06;10240056;28;97149;-79
2023/09/28 07:30:20;;;;;;;3.20;1.55;;;;;;;17.83;74.61;100785.88;10256154;28;97167;-79
2023/09/28 07:35:23;;;;;;;3.83;1.75;;;;;;;18.07;73.95;100784.38;10257619;28;96819;-79
2023/09/28 07:40:27;;;;;;;3.47;1.40;;;;;;;18.65;72.59;100788.75;10256617;28;97208;-79
2023/09/28 07:45:50;;;;;;;1.90;1.40;;;;;;;20.10;69.17;100788.59;10255935;28;97186;-79
2023/09/28 07:50:53;;;;;;;2.25;1.40;;;;;;;22.23;65.10;100802.03;10216561;28;97667;-79
2023/09/28 07:55:57;;;;;;;3.17;1.25;;;;;;;23.19;62.83;100802.16;10216330;28;97276;-79
2023/09/28 08:01:04;;;;;;;3.10;1.43;;;;;;;24.49;60.51;100809.75;10216711;28;96753;-78
2023/09/28 08:06:09;;;;;;;2.17;1.20;;;;;;;25.83;58.25;100824.34;10216315;28;97287;-79
2023/09/28 08:11:32;;;;;;;;;;;;;;;26.71;53.82;100817.56;10216026;28;96695;-79
2023/09/28 08:16:37;;;;;;;2.33;1.20;;;;;;;28.11;54.25;100805.09;10214930;28;97141;-79
2023/09/28 08:21:44;;;;;;;1.85;1.13;;;;;;;28.45;52.83;100807.84;10233868;28;98025;-79
2023/09/28 08:26:47;;;;;;;2.10;1.20;;;;;;;28.39;50.34;100812.06;10253284;28;97461;-80
2023/09/28 08:31:55;;;;;;;2.03;1.10;;;;;;;29.15;46.63;100812.91;10255469;28;97147;-80
2023/09/28 08:37:03;;;;;;;1.60;0.90;;;;;;;29.25;46.43;100812.72;10252904;28;97720;-80
2023/09/28 08:42:15;;;;;;;1.75;1.02;;;;;;;28.65;43.63;100818.28;10214822;28;97393;-80
2023/09/28 08:47:23;;;;;;;1.38;0.95;;;;;;;29.83;43.20;100808.09;10214888;28;96947;-80
2023/09/28 08:52:31;;;;;;;1.42;0.98;;;;;;;30.39;42.38;100805.28;10214563;28;97422;-80
2023/09/28 08:57:36;;;;;;;1.65;0.95;;;;;;;31.13;40.29;100808.38;10214949;28;96791;-80
2023/09/28 09:02:45;;;;;;;1.83;1.08;;;;;;;30.89;37.81;100811.22;10214186;28;96694;-80
2023/09/28 09:07:52;;;;;;;2.05;1.00;;;;;;;30.59;39.25;100816.59;10213485;28;96827;-80
2023/09/28 09:12:57;;;;;;;1.45;1.08;;;;;;;30.78;38.68;100816.22;10232403;28;97290;-80
2023/09/28 09:18:06;;;;;;;1.83;1.00;;;;;;;31.47;38.00;100809.88;10254407;28;96693;-80
2023/09/28 09:23:18;;;;;;;3.03;1.48;;;;;;;31.20;38.80;100809.34;10254099;28;96635;-80
2023/09/28 09:28:33;;;;;;;2.50;1.30;;;;;;;31.40;37.49;100811.63;10247955;28;97405;-80
2023/09/28 09:33:38;;;;;;;1.73;1.33;;;;;;;31.07;38.29;100806.38;10213594;28;96666;-80
2023/09/28 09:38:45;;;;;;;1.48;1.00;;;;;;;31.38;37.93;100808.25;10213437;28;98326;-80
2023/09/28 09:43:51;;;;;;;1.85;1.13;;;;;;;32.06;37.11;100799.03;10213838;28;96809;-80
2023/09/28 09:48:58;;;;;;;1.33;0.95;;;;;;;32.99;35.80;100800.19;10213618;28;96720;-80
2023/09/28 09:54:11;;;;;;;1.50;0.88;;;;;;;33.42;34.27;100803.81;10213184;28;96676;-80
2023/09/28 09:59:18;;;;;;;1.88;0.90;;;;;;;33.99;34.22;100801.03;10211578;28;96764;-80
2023/09/28 10:04:26;;;;;;;1.10;0.80;;;;;;;32.86;34.54;100808.16;10215120;28;97548;-80
2023/09/28 10:09:32;;;;;;;1.60;1.00;;;;;;;33.74;34.27;100806.03;10220036;28;97008;-80
2023/09/28 10:14:38;;;;;;;1.98;1.10;;;;;;;33.13;34.56;100809.34;10219793;28;96692;-80
2023/09/28 10:19:45;;;;;;;1.85;1.00;;;;;;;32.67;35.11;100802.47;10220142;28;97269;-80
2023/09/28 10:24:49;;;;;;;1.55;1.10;;;;;;;33.23;34.44;100804.44;10248008;28;97180;-80
2023/09/28 10:30:16;;;;;;;2.08;0.90;;;;;;;34.24;32.25;100792.19;10258996;28;96706;-80
2023/09/28 10:35:29;;;;;;;1.10;0.98;;;;;;;35.13;31.86;100793.91;10260085;28;96565;-80
2023/09/28 10:40:37;;;;;;;1.92;1.02;;;;;;;35.01;32.52;100794.75;10219254;28;96840;-80
2023/09/28 10:46:01;;;;;;;1.77;0.98;;;;;;;34.57;32.37;100786.94;10218505;28;96583;-80
2023/09/28 10:51:12;;;;;;;1.60;0.90;;;;;;;35.46;31.70;100785.84;10217228;28;96724;-80
2023/09/28 10:56:15;;;;;;;1.52;1.00;;;;;;;35.77;31.46;100785.22;10218670;28;96768;-78
2023/09/28 11:01:21;;;;;;;1.20;0.70;;;;;;;36.57;30.88;100783.00;10217604;28;97398;-78
2023/09/28 11:06:26;;;;;;;1.48;0.68;;;;;;;37.20;28.76;100781.28;10259392;28;97889;-78
2023/09/28 11:11:33;;;;;;;1.08;0.70;;;;;;;37.45;28.60;100777.56;10257223;28;97034;-78
2023/09/28 11:16:39;;;;;;;1.70;0.80;;;;;;;37.80;28.53;100777.91;10257621;28;97141;-78
2023/09/28 11:21:44;;;;;;;0.90;0.70;;;;;;;37.42;29.21;100767.03;10257865;28;97474;-78
2023/09/28 11:26:47;;;;;;;1.08;0.77;;;;;;;37.96;28.88;100765.53;10295887;28;96695;-78
2023/09/28 11:31:53;;;;;;;1.38;0.98;;;;;;;38.24;27.86;100760.41;10216591;28;97100;-78
2023/09/28 11:36:58;;;;;;;1.85;1.00;;;;;;;37.98;28.37;100749.66;10216364;28;96694;-78
2023/09/28 11:42:01;;;;;;;1.52;0.70;;;;;;;37.05;29.17;100745.06;10215347;28;96923;-78
2023/09/28 11:47:06;;;;;;;1.33;0.80;;;;;;;37.30;28.99;100733.06;10244397;28;96730;-79
2023/09/28 11:52:17;;;;;;;0.88;0.52;;;;;;;37.43;28.69;100723.94;10257048;28;97048;-79
2023/09/28 11:57:20;;;;;;;1.30;0.82;;;;;;;37.37;29.00;100725.66;10256995;28;96912;-79
2023/09/28 12:02:24;;;;;;;1.40;0.70;;;;;;;37.60;29.14;100722.31;10255700;28;96731;-79
2023/09/28 12:07:29;;;;;;;1.13;0.60;;;;;;;37.69;29.22;100716.28;10256356;28;97246;-78
2023/09/28 12:12:32;;;;;;;1.40;0.70;;;;;;;37.31;29.38;100706.47;10255884;28;96755;-79
2023/09/28 12:17:35;;;;;;;0.60;0.32;;;;;;;37.67;28.56;100703.84;10256827;28;96664;-79
2023/09/28 12:22:40;;;;;;;1.33;0.35;;;;;;;38.21;27.37;100703.97;10215530;28;97291;-78
2023/09/28 12:27:44;;;;;;;0.77;0.43;;;;;;;38.39;27.38;100700.38;10214916;28;97443;-79
2023/09/28 12:32:50;;;;;;;0.95;0.60;;;;;;;38.35;27.59;100705.50;10214455;28;97332;-79
2023/09/28 12:37:56;;;;;;;0.75;0.47;;;;;;;37.72;27.80;100699.38;10215257;28;96681;-79
2023/09/28 12:43:01;;;;;;;0.98;0.70;;;;;;;37.36;28.60;100688.28;10214572;28;96856;-78
2023/09/28 12:48:06;;;;;;;1.05;0.60;;;;;;;37.52;28.84;100692.38;10214669;28;96856;-79
2023/09/28 12:53:11;;;;;;;1.42;0.90;;;;;;;37.60;28.51;100686.59;10215261;28;96609;-79
2023/09/28 12:58:16;;;;;;;1.00;0.70;;;;;;;37.73;28.47;100681.81;10214277;28;97250;-79
2023/09/28 13:03:21;;;;;;;1.33;0.77;;;;;;;37.89;28.63;100679.56;10220135;28;96667;-79
2023/09/28 13:08:26;;;;;;;1.63;0.80;;;;;;;37.22;29.58;100677.59;10254863;28;96790;-79
2023/09/28 13:13:29;;;;;;;1.30;0.80;;;;;;;38.26;28.03;100679.41;10229407;28;97422;-78
2023/09/28 13:18:34;;;;;;;1.33;0.77;;;;;;;37.82;28.74;100684.31;10253955;28;96739;-79
2023/09/28 13:23:42;;;;;;;1.20;0.70;;;;;;;34.81;32.32;100670.69;10253307;28;97020;-78
2023/09/28 13:28:47;;;;;;;1.73;0.75;;;;;;;35.95;31.27;100676.69;10228403;28;97417;-78
2023/09/28 13:33:50;;;;;;;1.73;0.90;;;;;;;36.89;30.30;100682.47;10213731;28;96647;-78
2023/09/28 13:38:56;;;;;;;1.35;0.80;;;;;;;36.69;30.68;100672.41;10214324;28;96849;-79
2023/09/28 13:43:59;;;;;;;1.10;0.43;;;;;;;36.10;32.06;100674.53;10220935;28;97182;-78
2023/09/28 13:49:04;;;;;;;0.73;0.50;;;;;;;34.83;33.14;100669.44;10220231;28;97226;-79
2023/09/28 13:54:09;;;;;;;0.80;0.70;;;;;;;35.87;32.14;100662.34;10220273;28;96826;-78
2023/09/28 13:59:12;;;;;;;0.68;0.47;;;;;;;35.64;32.15;100663.66;10220652;28;96595;-78
2023/09/28 14:04:15;;;;;;;0.63;0.63;;;;;;;35.58;32.73;100660.94;10233130;28;96764;-79
2023/09/28 14:09:26;;;;;;;1.05;0.57;;;;;;;35.16;33.54;100669.53;10259821;28;96934;-78
2023/09/28 14:14:32;;;;;;;0.90;0.60;;;;;;;34.85;33.80;100661.03;10259124;28;96548;-78
2023/09/28 14:19:36;;;;;;;0.38;0.30;;;;;;;34.88;33.41;100653.25;10259330;28;96699;-78
2023/09/28 14:24:42;;;;;;;1.80;0.50;;;;;;;35.10;33.56;100648.44;10260880;28;96875;-78
2023/09/28 14:29:45;;;;;;;1.67;0.70;;;;;;;34.97;33.63;100646.56;10259035;28;97441;-78
2023/09/28 14:34:48;;;;;;;2.03;0.70;;;;;;;34.68;34.36;100646.88;10250422;28;97431;-80
2023/09/28 14:39:53;;;;;;;1.70;0.73;;;;;;;34.32;34.82;100644.44;10218172;28;96755;-81
2023/09/28 14:44:56;;;;;;;1.50;0.60;;;;;;;34.34;35.04;100641.50;10218891;28;96728;-80
2023/09/28 14:50:02;;;;;;;2.35;1.17;;;;;;;33.82;36.06;100647.50;10218524;28;97559;-80
2023/09/28 14:55:08;;;;;;;1.27;0.90;;;;;;;33.59;36.82;100646.91;10218848;28;97216;-81
2023/09/28 15:00:15;;;;;;;2.13;1.55;;;;;;;33.65;36.38;100634.38;10217732;28;96799;-80
2023/09/28 15:05:18;;;;;;;1.88;1.08;;;;;;;32.81;38.50;100636.09;10238340;28;96793;-80
2023/09/28 15:10:23;;;;;;;2.25;1.27;;;;;;;32.30;39.52;100631.72;10257720;28;96985;-80
2023/09/28 15:15:27;;;;;;;2.63;1.33;;;;;;;31.95;40.80;100625.22;10257950;28;96774;-80
2023/09/28 15:20:30;;;;;;;2.60;1.30;;;;;;;31.57;41.72;100628.16;10257988;28;96685;-80
2023/09/28 15:25:37;;;;;;;;;;;;;;;31.04;43.38;100638.16;10257318;28;96783;-80
2023/09/28 15:30:42;;;;;;;2.92;1.20;;;;;;;30.55;43.95;100635.94;10257532;28;97690;-80
2023/09/28 15:35:47;;;;;;;1.73;1.20;;;;;;;30.16;45.35;100634.13;10257566;28;96702;-81
2023/09/28 15:40:53;;;;;;;3.13;1.83;;;;;;;30.04;46.51;100645.50;10257776;28;97164;-80
2023/09/28 15:45:57;;;;;;;3.53;1.40;;;;;;;29.73;46.96;100650.00;10256311;28;97003;-80
2023/09/28 15:51:02;;;;;;;3.20;1.50;;;;;;;29.70;47.17;100647.66;10256915;28;96779;-80
2023/09/28 15:56:08;;;;;;;;;;;;;;;29.48;48.98;100651.06;10256332;28;96662;-80
2023/09/28 16:01:14;;;;;;;2.45;1.27;;;;;;;29.36;47.88;100642.44;10255185;28;96789;-80
2023/09/28 16:06:17;;;;;;;3.83;1.30;;;;;;;28.98;48.90;100657.50;10256310;28;96778;-80
2023/09/28 16:11:24;;;;;;;3.45;1.20;;;;;;;28.93;49.33;100654.47;10255828;28;97137;-80
2023/09/28 16:16:27;;;;;;;3.53;1.23;;;;;;;28.80;49.26;100656.81;10255439;28;97402;-80
2023/09/28 16:21:32;;;;;;;3.13;1.50;;;;;;;28.57;50.24;100663.88;10255721;28;96746;-80
2023/09/28 16:26:37;;;;;;;3.75;1.42;;;;;;;28.39;51.08;100657.75;10255453;28;96853;-80
2023/09/28 16:31:40;;;;;;;3.88;2.00;;;;;;;28.26;51.12;100662.72;10255966;28;96778;-80
2023/09/28 16:36:43;;;;;;;3.20;1.40;;;;;;;28.04;51.92;100664.16;10254496;28;96646;-79
2023/09/28 16:41:48;;;;;;;4.53;1.50;;;;;;;27.96;51.90;100669.53;10255112;28;97060;-80
2023/09/28 16:46:53;;;;;;;3.63;1.52;;;;;;;27.82;52.20;100678.22;10253937;28;96958;-80
2023/09/28 16:51:58;;;;;;;3.17;1.35;;;;;;;27.67;52.89;100676.28;10254412;28;96668;-80
2023/09/28 16:57:02;;;;;;;4.20;1.58;;;;;;;27.55;53.32;100688.34;10255282;28;97443;-80
2023/09/28 17:02:07;;;;;;;3.08;1.65;;;;;;;27.40;53.44;100698.03;10254981;28;97611;-80
2023/09/28 17:07:11;;;;;;;4.10;1.15;;;;;;;27.32;53.93;100704.22;10250500;28;97150;-80
2023/09/28 17:12:15;;;;;;;2.78;1.23;;;;;;;27.09;54.93;100712.97;10213681;28;96611;-80
2023/09/28 17:17:31;;;;;;;1.95;1.15;;;;;;;27.01;54.69;100722.66;10213349;28;96686;-80
2023/09/28 17:22:35;;;;;;;2.20;1.35;;;;;;;26.87;54.96;100730.47;10214495;28;96995;-80
2023/09/28 17:27:40;;;;;;;2.53;1.30;;;;;;;26.75;55.40;100737.91;10254399;28;97417;-80
2023/09/28 17:32:43;;;;;;;2.13;1.10;;;;;;;26.61;55.49;100724.09;10253986;28;97502;-79
2023/09/28 17:37:46;;;;;;;2.00;1.30;;;;;;;26.41;56.06;100728.75;10252548;28;96930;-80
2023/09/28 17:42:51;;;;;;;2.07;1.20;;;;;;;26.33;56.47;100722.38;10252402;28;96764;-80
2023/09/28 17:47:54;;;;;;;2.85;1.17;;;;;;;26.20;56.57;100732.63;10253430;28;96578;-80
2023/09/28 17:52:58;;;;;;;3.85;1.70;;;;;;;26.09;56.96;100732.84;10253209;28;96598;-80
2023/09/28 17:58:02;;;;;;;2.33;1.60;;;;;;;25.74;58.37;100744.28;10258433;22;99574;-80
2023/09/28 18:03:06;;;;;;;3.45;1.30;;;;;;;25.72;58.24;100751.69;10231134;28;99298;-80
2023/09/28 18:08:09;;;;;;;2.07;1.10;;;;;;;25.64;58.39;100755.06;10253142;28;96612;-80
2023/09/28 18:13:15;;;;;;;3.47;1.40;;;;;;;25.49;58.79;100761.88;10254217;28;96824;-80
2023/09/28 18:18:18;;;;;;;2.05;1.40;;;;;;;25.43;58.94;100765.13;10277232;28;96534;-80
2023/09/28 18:23:21;;;;;;;4.63;1.60;;;;;;;25.29;59.34;100778.22;10253379;28;97575;-80
2023/09/28 18:28:26;;;;;;;4.05;1.45;;;;;;;25.21;58.98;100772.69;10257472;28;97228;-80
2023/09/28 18:33:30;;;;;;;2.25;1.40;;;;;;;25.14;58.97;100772.38;10274400;28;96830;-80
2023/09/28 18:38:33;;;;;;;2.87;1.60;;;;;;;24.99;59.45;100780.97;10299901;28;96671;-80
2023/09/28 18:43:38;;;;;;;1.80;1.20;;;;;;;24.91;59.60;100791.59;10299631;28;96971;-80
2023/09/28 18:48:41;;;;;;;3.13;1.60;;;;;;;24.88;59.60;100810.72;10299463;28;96771;-79
2023/09/28 18:53:45;;;;;;;2.17;1.20;;;;;;;24.68;60.29;100820.59;10218400;28;97035;-79
2023/09/28 18:58:50;;;;;;;3.80;1.50;;;;;;;24.75;60.12;100824.44;10255272;28;96691;-79
2023/09/28 19:03:53;;;;;;;2.72;1.48;;;;;;;24.75;60.01;100832.50;10259311;28;97404;-79
2023/09/28 19:08:57;;;;;;;3.28;1.40;;;;;;;24.71;60.31;100847.22;10285409;28;96609;-79
2023/09/28 19:14:02;;;;;;;3.70;2.00;;;;;;;24.65;60.40;100858.53;10298408;28;97163;-79
2023/09/28 19:19:05;;;;;;;3.38;1.65;;;;;;;24.53;60.59;100863.16;10297020;28;96593;-79
2023/09/28 19:24:10;;;;;;;3.73;1.60;;;;;;;24.52;60.77;100861.44;10298006;28;96626;-78
2023/09/28 19:29:15;;;;;;;2.25;1.50;;;;;;;24.41;61.04;100872.28;10298001;28;96839;-79
2023/09/28 19:34:18;;;;;;;2.80;1.60;;;;;;;24.16;61.71;100877.22;10298032;28;96634;-79
2023/09/28 19:39:25;;;;;;;3.53;1.63;;;;;;;24.07;61.97;100876.16;10296989;28;96960;-79
2023/09/28 19:44:29;;;;;;;3.28;1.73;;;;;;;24.05;61.92;100883.50;10297483;28;96915;-79
2023/09/28 19:49:34;;;;;;;2.50;1.40;;;;;;;23.94;62.10;100890.78;10297518;28;96684;-79
2023/09/28 19:54:37;;;;;;;3.38;1.70;;;;;;;23.95;62.12;100896.03;10294276;28;96694;-79
2023/09/28 19:59:42;;;;;;;3.85;1.75;;;;;;;23.89;62.29;100893.88;10281209;28;96919;-79
2023/09/28 20:04:45;;;;;;;2.60;1.40;;;;;;;23.80;62.24;100901.84;10296620;28;97374;-79
2023/09/28 20:09:48;;;;;;;2.83;1.60;;;;;;;23.64;62.75;100915.72;10295894;28;97261;-79
2023/09/28 20:14:53;;;;;;;2.87;1.63;;;;;;;23.35;63.97;100914.56;10296866;28;97095;-79
2023/09/28 20:19:56;;;;;;;2.95;1.70;;;;;;;23.38;63.85;100914.28;10296419;28;96598;-79
2023/09/28 20:25:00;;;;;;;3.47;1.95;;;;;;;23.38;63.58;100925.03;10279003;28;96804;-79
2023/09/28 20:30:05;;;;;;;2.87;1.67;;;;;;;23.44;63.20;100928.06;10255520;28;97137;-79
2023/09/28 20:35:09;;;;;;;3.47;1.63;;;;;;;23.41;63.52;100933.69;10292728;28;97062;-79
2023/09/28 20:40:15;;;;;;;2.40;1.27;;;;;;;23.07;64.15;100945.47;10295742;28;96706;-79
2023/09/28 20:45:20;;;;;;;3.05;1.67;;;;;;;23.15;64.25;100945.72;10296746;28;96676;-79
2023/09/28 20:50:23;;;;;;;2.78;1.70;;;;;;;23.38;63.63;100944.72;10294450;28;96995;-79
2023/09/28 20:55:27;;;;;;;2.47;1.33;;;;;;;23.20;63.89;100953.41;10284869;28;97499;-78
2023/09/28 21:00:34;;;;;;;2.58;1.70;;;;;;;23.06;64.58;100948.28;10253617;28;96636;-79
2023/09/28 21:05:38;;;;;;;2.92;1.55;;;;;;;23.17;64.29;100953.63;10262956;28;96585;-79
2023/09/28 21:10:42;;;;;;;3.07;1.67;;;;;;;23.16;64.08;100951.94;10295490;28;97008;-79
2023/09/28 21:15:46;;;;;;;3.97;1.95;;;;;;;23.16;64.18;100946.56;10294850;28;96730;-79
2023/09/28 21:20:51;;;;;;;3.58;1.55;;;;;;;23.13;64.25;100950.34;10294764;28;96841;-79
2023/09/28 21:25:56;;;;;;;2.25;1.27;;;;;;;23.10;64.40;100949.72;10294506;28;96789;-79
2023/09/28 21:31:03;;;;;;;2.55;1.50;;;;;;;22.90;65.18;100934.38;10294685;28;97084;-79
2023/09/28 21:36:08;;;;;;;2.50;1.50;;;;;;;22.73;65.28;100932.16;10295284;28;97300;-79
2023/09/28 21:41:12;;;;;;;4.55;1.83;;;;;;;22.64;65.70;100936.41;10293718;28;96857;-79
2023/09/28 21:46:24;;;;;;;4.30;1.52;;;;;;;22.81;65.36;100929.72;10294398;28;97033;-79
2023/09/28 21:51:30;;;;;;;3.10;1.85;;;;;;;22.68;65.59;100927.13;10292978;28;96656;-79
2023/09/28 21:56:34;;;;;;;3.35;1.52;;;;;;;22.41;66.50;100929.28;10270762;28;96745;-79
2023/09/28 22:01:41;;;;;;;;;;;;;;;22.32;67.58;100935.38;10297816;28;96914;-79
2023/09/28 22:06:44;;;;;;;3.17;1.52;;;;;;;22.19;66.68;100931.94;10301253;28;96732;-79
2023/09/28 22:11:52;;;;;;;5.65;1.85;;;;;;;22.11;66.77;100929.81;10300642;28;97511;-79
2023/09/28 22:16:59;;;;;;;2.58;1.50;;;;;;;21.95;67.12;100937.28;10300642;28;97250;-79
2023/09/28 22:22:03;;;;;;;4.15;1.48;;;;;;;21.81;68.13;100933.97;10300970;28;96738;-79
2023/09/28 22:27:06;;;;;;;;;;;;;;;21.74;68.95;100933.56;10301519;28;97366;-79
2023/09/28 22:32:11;;;;;;;2.75;1.48;;;;;;;22.02;67.14;100941.25;10300239;28;96608;-79
2023/09/28 22:37:14;;;;;;;3.53;1.98;;;;;;;21.80;67.53;100943.81;10300042;28;96706;-79
2023/09/28 22:42:17;;;;;;;2.75;1.50;;;;;;;21.73;67.93;100939.88;10298949;28;96771;-79
2023/09/28 22:47:22;;;;;;;3.55;1.80;;;;;;;21.67;68.26;100948.38;10299034;28;96744;-79
2023/09/28 22:52:26;;;;;;;2.90;1.65;;;;;;;21.66;68.28;100943.97;10299383;28;96718;-79
2023/09/28 22:57:29;;;;;;;;;;;;;;;21.29;70.50;100951.19;10272131;28;97293;-80
2023/09/28 23:02:34;;;;;;;3.08;1.30;;;;;;;21.58;68.45;100957.09;10258721;28;96859;-79
2023/09/28 23:07:39;;;;;;;3.35;1.35;;;;;;;21.78;68.08;100953.78;10291566;28;96909;-79
2023/09/28 23:12:42;;;;;;;2.53;1.60;;;;;;;21.86;67.48;100951.41;10297692;28;96896;-79
2023/09/28 23:17:47;;;;;;;3.90;1.50;;;;;;;21.88;67.55;100946.78;10299377;28;96716;-79
2023/09/28 23:22:52;;;;;;;3.35;1.75;;;;;;;21.93;67.78;100952.66;10298087;28;97038;-79
2023/09/28 23:27:55;;;;;;;3.53;1.70;;;;;;;21.82;68.21;100955.28;10259629;28;96757;-79